Time,TemperatureF,DewpointF,PressureIn,WindDirection,WindDirectionDegrees,WindSpeedMPH,WindSpeedGustMPH,Humidity,HourlyPrecipIn,Conditions,Clouds,dailyrainin,SoftwareType,DateUTC
2013-12-05 00:00:00,53.8,50.9,16.09,North,360,2.0,4.0,90,0.00,,,0.04,Wunderground v.1.15,2013-12-05 05:00:00,
2013-12-05 00:05:00,53.9,51.0,16.09,North,360,3.0,3.0,90,0.00,,,0.00,Wunderground v.1.15,2013-12-05 05:05:00,
2013-12-05 00:10:00,53.9,51.0,16.09,North,360,4.0,4.0,90,0.00,,,0.00,Wunderground v.1.15,2013-12-05 05:10:00,
2013-12-05 00:15:00,54.0,51.1,16.09,North,360,3.0,5.0,90,0.00,,,0.00,Wunderground v.1.15,2013-12-05 05:15:00,
2013-12-05 00:20:00,54.0,51.1,16.09,North,360,3.0,5.0,90,0.00,,,0.00,Wunderground v.1.15,2013-12-05 05:20:00,
2013-12-05 00:30:00,54.5,51.6,16.09,North,360,4.0,5.0,90,0.00,,,0.00,Wunderground v.1.15,2013-12-05 05:30:00,
2013-12-05 00:35:00,54.8,51.9,16.09,North,360,6.0,6.0,90,0.00,,,0.00,Wunderground v.1.15,2013-12-05 05:35:00,
2013-12-05 00:45:00,55.1,52.2,16.09,North,360,5.0,5.0,90,0.00,,,0.00,Wunderground v.1.15,2013-12-05 05:45:00,
2013-12-05 00:50:00,55.1,52.2,16.09,North,360,4.0,5.0,90,0.00,,,0.00,Wunderground v.1.15,2013-12-05 05:50:00,
2013-12-05 00:55:00,55.2,52.3,16.09,North,360,3.0,3.0,90,0.00,,,0.00,Wunderground v.1.15,2013-12-05 05:55:00,
2013-12-05 01:05:00,55.3,52.4,16.09,North,360,3.0,3.0,90,0.00,,,0.00,Wunderground v.1.15,2013-12-05 06:05:00,
2013-12-05 01:10:00,55.5,52.6,16.09,North,360,3.0,3.0,90,0.00,,,0.00,Wunderground v.1.15,2013-12-05 06:10:00,
2013-12-05 01:15:00,55.8,52.9,16.09,North,360,4.0,4.0,90,0.00,,,0.00,Wunderground v.1.15,2013-12-05 06:15:00,
2013-12-05 01:20:00,55.9,53.0,16.09,North,360,4.0,6.0,90,0.00,,,0.00,Wunderground v.1.15,2013-12-05 06:20:00,
2013-12-05 01:25:00,56.2,53.3,16.09,North,360,4.0,5.0,90,0.00,,,0.00,Wunderground v.1.15,2013-12-05 06:25:00,
2013-12-05 01:35:00,56.6,53.7,16.09,North,360,5.0,5.0,90,0.00,,,0.00,Wunderground v.1.15,2013-12-05 06:35:00,
2013-12-05 01:40:00,57.0,53.8,16.09,North,360,6.0,6.0,89,0.00,,,0.00,Wunderground v.1.15,2013-12-05 06:40:00,
2013-12-05 01:50:00,57.4,54.2,16.09,North,360,5.0,8.0,89,0.00,,,0.00,Wunderground v.1.15,2013-12-05 06:50:00,
2013-12-05 01:55:00,57.7,54.2,16.09,North,360,7.0,7.0,88,0.00,,,0.00,Wunderground v.1.15,2013-12-05 06:55:00,
2013-12-05 02:05:00,57.7,54.2,16.09,North,360,6.0,6.0,88,0.00,,,0.00,Wunderground v.1.15,2013-12-05 07:05:00,
2013-12-05 02:10:00,57.6,54.1,16.09,North,360,6.0,6.0,88,0.00,,,0.00,Wunderground v.1.15,2013-12-05 07:10:00,
2013-12-05 02:20:00,57.5,54.3,16.09,North,360,5.0,10.0,89,0.00,,,0.00,Wunderground v.1.15,2013-12-05 07:20:00,
2013-12-05 02:25:00,57.4,54.2,16.09,North,360,6.0,6.0,89,0.00,,,0.00,Wunderground v.1.15,2013-12-05 07:25:00,
2013-12-05 02:35:00,57.3,54.1,16.09,North,360,5.0,10.0,89,0.00,,,0.00,Wunderground v.1.15,2013-12-05 07:35:00,
2013-12-05 02:45:00,57.2,54.0,16.09,North,360,5.0,5.0,89,0.00,,,0.00,Wunderground v.1.15,2013-12-05 07:45:00,
2013-12-05 02:50:00,57.1,53.9,16.09,North,360,4.0,5.0,89,0.00,,,0.00,Wunderground v.1.15,2013-12-05 07:50:00,
2013-12-05 03:00:00,56.9,53.7,16.09,North,360,5.0,5.0,89,0.00,,,0.00,Wunderground v.1.15,2013-12-05 08:00:00,
2013-12-05 03:10:00,56.7,53.5,16.09,North,360,4.0,10.0,89,0.00,,,0.00,Wunderground v.1.15,2013-12-05 08:10:00,
2013-12-05 03:15:00,56.7,53.8,16.09,North,360,5.0,9.0,90,0.00,,,0.00,Wunderground v.1.15,2013-12-05 08:15:00,
2013-12-05 03:25:00,56.7,53.8,16.09,North,360,6.0,6.0,90,0.00,,,0.00,Wunderground v.1.15,2013-12-05 08:25:00,
2013-12-05 03:30:00,56.7,53.5,16.09,North,360,6.0,6.0,89,0.00,,,0.00,Wunderground v.1.15,2013-12-05 08:30:00,
2013-12-05 03:40:00,56.6,53.4,16.09,North,360,6.0,10.0,89,0.00,,,0.00,Wunderground v.1.15,2013-12-05 08:40:00,
2013-12-05 03:45:00,56.6,53.4,16.09,North,360,6.0,6.0,89,0.00,,,0.00,Wunderground v.1.15,2013-12-05 08:45:00,
2013-12-05 03:55:00,56.5,53.6,16.09,North,360,5.0,8.0,90,0.00,,,0.00,Wunderground v.1.15,2013-12-05 08:55:00,
2013-12-05 04:05:00,56.7,53.5,16.09,North,360,5.0,6.0,89,0.00,,,0.00,Wunderground v.1.15,2013-12-05 09:05:00,
2013-12-05 04:10:00,56.7,53.5,16.09,North,360,6.0,6.0,89,0.00,,,0.00,Wunderground v.1.15,2013-12-05 09:10:00,
2013-12-05 04:20:00,56.8,53.6,16.09,North,360,5.0,6.0,89,0.00,,,0.00,Wunderground v.1.15,2013-12-05 09:20:00,
2013-12-05 04:30:00,57.0,53.5,16.09,North,360,8.0,12.0,88,0.00,,,0.00,Wunderground v.1.15,2013-12-05 09:30:00,
2013-12-05 04:40:00,57.1,53.3,16.09,North,360,8.0,8.0,87,0.00,,,0.00,Wunderground v.1.15,2013-12-05 09:40:00,
2013-12-05 04:45:00,57.1,53.0,16.09,North,360,8.0,13.0,86,0.00,,,0.00,Wunderground v.1.15,2013-12-05 09:45:00,
2013-12-05 04:55:00,57.3,52.2,16.09,North,360,9.0,9.0,83,0.00,,,0.00,Wunderground v.1.15,2013-12-05 09:55:00,
2013-12-05 05:00:00,57.3,51.9,16.09,North,360,8.0,9.0,82,0.00,,,0.00,Wunderground v.1.15,2013-12-05 10:00:00,
2013-12-05 05:10:00,57.1,51.3,16.09,North,360,8.0,11.0,81,0.00,,,0.00,Wunderground v.1.15,2013-12-05 10:10:00,
2013-12-05 05:20:00,57.0,50.9,16.09,North,360,8.0,11.0,80,0.00,,,0.00,Wunderground v.1.15,2013-12-05 10:20:00,
2013-12-05 05:25:00,57.0,50.9,16.09,North,360,9.0,9.0,80,0.00,,,0.00,Wunderground v.1.15,2013-12-05 10:25:00,
2013-12-05 05:35:00,56.8,50.0,16.09,North,360,11.0,13.0,78,0.00,,,0.00,Wunderground v.1.15,2013-12-05 10:35:00,
2013-12-05 05:45:00,56.7,49.6,16.09,North,360,14.0,14.0,77,0.00,,,0.00,Wunderground v.1.15,2013-12-05 10:45:00,
2013-12-05 05:50:00,56.4,49.3,16.09,North,360,14.0,21.0,77,0.00,,,0.00,Wunderground v.1.15,2013-12-05 10:50:00,
2013-12-05 06:00:00,55.6,47.8,16.09,North,360,18.0,22.0,75,0.00,,,0.00,Wunderground v.1.15,2013-12-05 11:00:00,
2013-12-05 06:10:00,54.4,48.0,16.09,North,360,15.0,18.0,79,0.00,,,0.00,Wunderground v.1.15,2013-12-05 11:10:00,
2013-12-05 06:20:00,53.3,47.3,16.09,North,360,11.0,13.0,80,0.00,,,0.00,Wunderground v.1.15,2013-12-05 11:20:00,
2013-12-05 06:30:00,51.9,45.6,16.09,North,360,13.0,13.0,79,0.00,,,0.00,Wunderground v.1.15,2013-12-05 11:30:00,
2013-12-05 06:40:00,50.9,44.3,16.09,North,360,14.0,18.0,78,0.00,,,0.00,Wunderground v.1.15,2013-12-05 11:40:00,
2013-12-05 06:50:00,49.6,43.0,16.09,North,360,12.0,13.0,78,0.00,,,0.00,Wunderground v.1.15,2013-12-05 11:50:00,
2013-12-05 07:00:00,48.2,42.0,16.09,North,360,11.0,23.0,79,0.00,,,0.00,Wunderground v.1.15,2013-12-05 12:00:00,
2013-12-05 07:10:00,46.7,39.5,16.09,North,360,14.0,24.0,76,0.00,,,0.00,Wunderground v.1.15,2013-12-05 12:10:00,
2013-12-05 07:20:00,45.9,39.1,16.09,North,360,13.0,15.0,77,0.00,,,0.00,Wunderground v.1.15,2013-12-05 12:20:00,
2013-12-05 07:25:00,45.6,39.1,16.09,North,360,10.0,10.0,78,0.00,,,0.00,Wunderground v.1.15,2013-12-05 12:25:00,
2013-12-05 07:35:00,45.3,38.8,16.09,North,360,10.0,10.0,78,0.00,,,0.00,Wunderground v.1.15,2013-12-05 12:35:00,
2013-12-05 07:40:00,45.0,38.6,16.09,North,360,10.0,17.0,78,0.00,,,0.00,Wunderground v.1.15,2013-12-05 12:40:00,
2013-12-05 07:50:00,44.7,38.3,16.09,North,360,12.0,13.0,78,0.00,,,0.00,Wunderground v.1.15,2013-12-05 12:50:00,
2013-12-05 07:55:00,44.5,38.4,16.09,North,360,11.0,11.0,79,0.00,,,0.00,Wunderground v.1.15,2013-12-05 12:55:00,
2013-12-05 08:05:00,44.0,37.9,16.09,North,360,12.0,17.0,79,0.00,,,0.00,Wunderground v.1.15,2013-12-05 13:05:00,
2013-12-05 08:10:00,43.7,37.3,16.09,North,360,13.0,17.0,78,0.00,,,0.00,Wunderground v.1.15,2013-12-05 13:10:00,
2013-12-05 08:20:00,43.4,37.0,16.09,North,360,11.0,12.0,78,0.00,,,0.00,Wunderground v.1.15,2013-12-05 13:20:00,
2013-12-05 08:30:00,43.1,36.7,16.09,North,360,10.0,15.0,78,0.00,,,0.00,Wunderground v.1.15,2013-12-05 13:30:00,
2013-12-05 08:40:00,42.8,36.4,16.09,North,360,11.0,16.0,78,0.00,,,0.00,Wunderground v.1.15,2013-12-05 13:40:00,
2013-12-05 08:50:00,42.5,36.4,16.09,North,360,7.0,9.0,79,0.00,,,0.00,Wunderground v.1.15,2013-12-05 13:50:00,
2013-12-05 08:55:00,42.4,36.3,16.09,North,360,7.0,7.0,79,0.00,,,0.00,Wunderground v.1.15,2013-12-05 13:55:00,
2013-12-05 09:05:00,42.1,36.4,16.09,North,360,5.0,6.0,80,0.00,,,0.00,Wunderground v.1.15,2013-12-05 14:05:00,
2013-12-05 09:10:00,42.0,36.3,16.09,North,360,7.0,12.0,80,0.00,,,0.00,Wunderground v.1.15,2013-12-05 14:10:00,
2013-12-05 09:20:00,41.4,35.7,16.09,North,360,10.0,14.0,80,0.00,,,0.00,Wunderground v.1.15,2013-12-05 14:20:00,
2013-12-05 09:30:00,41.1,35.4,16.09,North,360,10.0,10.0,80,0.00,,,0.00,Wunderground v.1.15,2013-12-05 14:30:00,
2013-12-05 09:40:00,41.0,35.6,16.09,North,360,8.0,10.0,81,0.00,,,0.00,Wunderground v.1.15,2013-12-05 14:40:00,
2013-12-05 09:50:00,41.4,35.4,16.09,North,360,10.0,17.0,79,0.00,,,0.00,Wunderground v.1.15,2013-12-05 14:50:00,
2013-12-05 09:55:00,41.0,34.0,16.09,North,360,13.0,19.0,76,0.00,,,0.00,Wunderground v.1.15,2013-12-05 14:55:00,
2013-12-05 10:05:00,40.2,33.6,16.09,North,360,16.0,16.0,77,0.00,,,0.00,Wunderground v.1.15,2013-12-05 15:05:00,
2013-12-05 10:10:00,39.6,33.0,16.09,North,360,13.0,16.0,77,0.00,,,0.00,Wunderground v.1.15,2013-12-05 15:10:00,
2013-12-05 10:20:00,39.1,32.8,16.09,North,360,13.0,14.0,78,0.00,,,0.00,Wunderground v.1.15,2013-12-05 15:20:00,
2013-12-05 10:30:00,39.0,32.7,16.09,North,360,12.0,13.0,78,0.00,,,0.00,Wunderground v.1.15,2013-12-05 15:30:00,
2013-12-05 10:40:00,39.1,32.5,16.09,North,360,8.0,11.0,77,0.00,,,0.00,Wunderground v.1.15,2013-12-05 15:40:00,
2013-12-05 10:50:00,38.9,32.3,16.09,North,360,9.0,10.0,77,0.00,,,0.00,Wunderground v.1.15,2013-12-05 15:50:00,
2013-12-05 10:55:00,38.7,32.1,16.09,North,360,8.0,10.0,77,0.00,,,0.00,Wunderground v.1.15,2013-12-05 15:55:00,
2013-12-05 11:05:00,38.2,31.9,19.45,North,360,9.0,9.0,78,0.00,,,0.00,Wunderground v.1.15,2013-12-05 16:05:00,
2013-12-05 11:10:00,38.1,32.2,19.45,North,360,8.0,14.0,79,0.00,,,0.00,Wunderground v.1.15,2013-12-05 16:10:00,
2013-12-05 11:20:00,38.2,31.9,19.45,North,360,12.0,14.0,78,0.00,,,0.00,Wunderground v.1.15,2013-12-05 16:20:00,
2013-12-05 11:30:00,38.3,30.7,19.45,North,360,12.0,15.0,74,0.00,,,0.00,Wunderground v.1.15,2013-12-05 16:30:00,
2013-12-05 11:40:00,38.3,30.7,19.45,North,360,11.0,13.0,74,0.00,,,0.00,Wunderground v.1.15,2013-12-05 16:40:00,
2013-12-05 11:50:00,38.3,30.7,19.45,North,360,9.0,11.0,74,0.00,,,0.00,Wunderground v.1.15,2013-12-05 16:50:00,
2013-12-05 12:00:00,38.2,31.3,19.45,North,360,8.0,12.0,76,0.00,,,0.00,Wunderground v.1.15,2013-12-05 17:00:00,
2013-12-05 12:05:00,38.1,30.5,19.45,North,360,10.0,10.0,74,0.00,,,0.00,Wunderground v.1.15,2013-12-05 17:05:00,
2013-12-05 12:10:00,38.2,30.6,19.45,North,360,10.0,10.0,74,0.00,,,0.00,Wunderground v.1.15,2013-12-05 17:10:00,
2013-12-05 12:20:00,38.0,30.4,19.45,North,360,11.0,13.0,74,0.00,,,0.00,Wunderground v.1.15,2013-12-05 17:20:00,
2013-12-05 12:30:00,37.9,29.7,19.45,North,360,12.0,13.0,72,0.00,,,0.00,Wunderground v.1.15,2013-12-05 17:30:00,
2013-12-05 12:35:00,37.9,30.0,19.45,North,360,12.0,12.0,73,0.00,,,0.00,Wunderground v.1.15,2013-12-05 17:35:00,
2013-12-05 12:45:00,38.3,30.1,19.45,North,360,9.0,10.0,72,0.00,,,0.00,Wunderground v.1.15,2013-12-05 17:45:00,
2013-12-05 12:50:00,38.3,30.1,19.45,North,360,10.0,10.0,72,0.00,,,0.00,Wunderground v.1.15,2013-12-05 17:50:00,
2013-12-05 13:00:00,38.2,29.6,19.45,North,360,12.0,12.0,71,0.00,,,0.00,Wunderground v.1.15,2013-12-05 18:00:00,
2013-12-05 13:10:00,38.6,28.9,17.89,North,360,13.0,14.0,68,0.00,,,0.00,Wunderground v.1.15,2013-12-05 18:10:00,
2013-12-05 13:20:00,37.8,28.2,17.89,North,360,15.0,19.0,68,0.00,,,0.00,Wunderground v.1.15,2013-12-05 18:20:00,
2013-12-05 13:30:00,38.0,28.7,17.89,North,360,11.0,14.0,69,0.00,,,0.00,Wunderground v.1.15,2013-12-05 18:30:00,
2013-12-05 13:40:00,38.4,28.8,17.89,North,360,11.0,13.0,68,0.00,,,0.00,Wunderground v.1.15,2013-12-05 18:40:00,
2013-12-05 13:45:00,37.8,27.8,17.89,North,360,12.0,12.0,67,0.00,,,0.00,Wunderground v.1.15,2013-12-05 18:45:00,
2013-12-05 13:55:00,37.5,27.5,17.89,North,360,12.0,13.0,67,0.00,,,0.00,Wunderground v.1.15,2013-12-05 18:55:00,
2013-12-05 14:05:00,38.2,28.2,17.89,North,360,10.0,10.0,67,0.00,,,0.00,Wunderground v.1.15,2013-12-05 19:05:00,
2013-12-05 14:10:00,38.7,28.7,17.89,North,360,10.0,13.0,67,0.00,,,0.00,Wunderground v.1.15,2013-12-05 19:10:00,
2013-12-05 14:20:00,38.7,27.9,17.89,North,360,9.0,13.0,65,0.00,,,0.00,Wunderground v.1.15,2013-12-05 19:20:00,
2013-12-05 14:25:00,38.4,27.7,17.89,North,360,10.0,13.0,65,0.00,,,0.00,Wunderground v.1.15,2013-12-05 19:25:00,
2013-12-05 14:30:00,38.2,27.8,17.89,North,360,11.0,14.0,66,0.00,,,0.00,Wunderground v.1.15,2013-12-05 19:30:00,
2013-12-05 14:40:00,37.7,27.7,17.89,North,360,11.0,17.0,67,0.00,,,0.00,Wunderground v.1.15,2013-12-05 19:40:00,
2013-12-05 14:50:00,37.4,27.1,17.89,North,360,9.0,16.0,66,0.00,,,0.00,Wunderground v.1.15,2013-12-05 19:50:00,
2013-12-05 15:00:00,37.0,26.3,17.89,North,360,10.0,23.0,65,0.00,,,0.00,Wunderground v.1.15,2013-12-05 20:00:00,
2013-12-05 15:10:00,37.0,26.7,17.89,North,360,9.0,11.0,66,0.00,,,0.00,Wunderground v.1.15,2013-12-05 20:10:00,
2013-12-05 15:20:00,37.3,26.6,17.89,North,360,6.0,7.0,65,0.00,,,0.00,Wunderground v.1.15,2013-12-05 20:20:00,
2013-12-05 15:25:00,37.3,26.2,17.89,North,360,7.0,16.0,64,0.00,,,0.00,Wunderground v.1.15,2013-12-05 20:25:00,
2013-12-05 15:35:00,36.8,26.1,17.89,North,360,8.0,8.0,65,0.00,,,0.00,Wunderground v.1.15,2013-12-05 20:35:00,
2013-12-05 15:45:00,36.4,25.4,17.89,North,360,8.0,10.0,64,0.00,,,0.00,Wunderground v.1.15,2013-12-05 20:45:00,
2013-12-05 15:50:00,36.1,25.1,17.89,North,360,10.0,17.0,64,0.00,,,0.00,Wunderground v.1.15,2013-12-05 20:50:00,
2013-12-05 16:00:00,35.8,25.2,17.89,North,360,10.0,12.0,65,0.00,,,0.00,Wunderground v.1.15,2013-12-05 21:00:00,
2013-12-05 16:10:00,35.5,24.5,17.89,North,360,8.0,8.0,64,0.00,,,0.00,Wunderground v.1.15,2013-12-05 21:10:00,
2013-12-05 16:20:00,35.2,24.6,17.89,North,360,8.0,8.0,65,0.00,,,0.00,Wunderground v.1.15,2013-12-05 21:20:00,
2013-12-05 16:30:00,34.9,24.3,17.89,North,360,10.0,11.0,65,0.00,,,0.00,Wunderground v.1.15,2013-12-05 21:30:00,
2013-12-05 16:35:00,34.7,24.5,17.89,North,360,8.0,8.0,66,0.00,,,0.00,Wunderground v.1.15,2013-12-05 21:35:00,
2013-12-05 16:45:00,34.4,24.2,17.89,North,360,7.0,7.0,66,0.00,,,0.00,Wunderground v.1.15,2013-12-05 21:45:00,
2013-12-05 16:50:00,34.4,24.2,19.45,North,360,7.0,7.0,66,0.00,,,0.00,Wunderground v.1.15,2013-12-05 21:50:00,
2013-12-05 17:00:00,34.3,24.5,19.45,North,360,6.0,6.0,67,0.00,,,0.00,Wunderground v.1.15,2013-12-05 22:00:00,
2013-12-05 17:10:00,34.1,24.3,19.20,North,360,6.0,9.0,67,0.00,,,0.00,Wunderground v.1.15,2013-12-05 22:10:00,
2013-12-05 17:20:00,33.9,23.7,19.20,North,360,7.0,9.0,66,0.00,,,0.00,Wunderground v.1.15,2013-12-05 22:20:00,
2013-12-05 17:30:00,33.6,23.4,19.20,North,360,7.0,11.0,66,0.00,,,0.00,Wunderground v.1.15,2013-12-05 22:30:00,
2013-12-05 17:40:00,33.3,23.5,19.20,North,360,10.0,18.0,67,0.00,,,0.00,Wunderground v.1.15,2013-12-05 22:40:00,
2013-12-05 17:45:00,33.2,23.8,19.20,North,360,8.0,8.0,68,0.00,,,0.00,Wunderground v.1.15,2013-12-05 22:45:00,
2013-12-05 17:55:00,32.9,23.5,19.20,North,360,6.0,6.0,68,0.00,,,0.00,Wunderground v.1.15,2013-12-05 22:55:00,
2013-12-05 18:00:00,32.8,23.4,19.20,North,360,6.0,6.0,68,0.00,,,0.00,Wunderground v.1.15,2013-12-05 23:00:00,
2013-12-05 18:10:00,32.4,22.7,19.20,North,360,8.0,8.0,67,0.00,,,0.00,Wunderground v.1.15,2013-12-05 23:10:00,
2013-12-05 18:20:00,32.2,22.8,19.20,North,360,5.0,7.0,68,0.00,,,0.00,Wunderground v.1.15,2013-12-05 23:20:00,
2013-12-05 18:30:00,31.8,22.8,19.20,North,360,3.0,4.0,69,0.00,,,0.00,Wunderground v.1.15,2013-12-05 23:30:00,
2013-12-05 18:40:00,31.6,22.9,19.20,North,360,4.0,4.0,70,0.00,,,0.00,Wunderground v.1.15,2013-12-05 23:40:00,
2013-12-05 18:50:00,31.4,22.7,19.20,North,360,6.0,8.0,70,0.00,,,0.00,Wunderground v.1.15,2013-12-05 23:50:00,
2013-12-05 18:55:00,31.2,22.5,19.20,North,360,6.0,6.0,70,0.00,,,0.00,Wunderground v.1.15,2013-12-05 23:55:00,
2013-12-05 19:05:00,31.1,22.5,19.20,North,360,5.0,6.0,70,0.00,,,0.00,Wunderground v.1.15,2013-12-06 00:05:00,
2013-12-05 19:10:00,31.1,22.8,19.45,North,360,4.0,6.0,71,0.00,,,0.00,Wunderground v.1.15,2013-12-06 00:10:00,
2013-12-05 19:20:00,31.0,22.7,19.45,North,360,8.0,10.0,71,0.00,,,0.00,Wunderground v.1.15,2013-12-06 00:20:00,
2013-12-05 19:25:00,30.9,22.6,19.45,North,360,9.0,9.0,71,0.00,,,0.00,Wunderground v.1.15,2013-12-06 00:25:00,
2013-12-05 19:35:00,30.8,22.8,19.45,North,360,6.0,8.0,72,0.00,,,0.00,Wunderground v.1.15,2013-12-06 00:35:00,
2013-12-05 19:45:00,30.7,22.7,19.45,North,360,5.0,11.0,72,0.00,,,0.00,Wunderground v.1.15,2013-12-06 00:45:00,
2013-12-05 19:50:00,30.6,22.3,19.45,North,360,7.0,12.0,71,0.00,,,0.00,Wunderground v.1.15,2013-12-06 00:50:00,
2013-12-05 20:00:00,30.5,22.5,19.45,North,360,7.0,10.0,72,0.00,,,0.00,Wunderground v.1.15,2013-12-06 01:00:00,
2013-12-05 20:05:00,30.5,22.2,19.45,North,360,6.0,10.0,71,0.00,,,0.00,Wunderground v.1.15,2013-12-06 01:05:00,
2013-12-05 20:10:00,30.5,22.5,19.45,North,360,7.0,10.0,72,0.00,,,0.00,Wunderground v.1.15,2013-12-06 01:10:00,
2013-12-05 20:20:00,30.5,22.2,19.45,North,360,6.0,8.0,71,0.00,,,0.00,Wunderground v.1.15,2013-12-06 01:20:00,
2013-12-05 20:25:00,30.5,22.5,19.45,North,360,7.0,9.0,72,0.00,,,0.00,Wunderground v.1.15,2013-12-06 01:25:00,
2013-12-05 20:35:00,30.5,22.5,19.45,North,360,6.0,6.0,72,0.00,,,0.00,Wunderground v.1.15,2013-12-06 01:35:00,
2013-12-05 20:45:00,30.5,22.5,19.45,North,360,5.0,13.0,72,0.00,,,0.00,Wunderground v.1.15,2013-12-06 01:45:00,
2013-12-05 21:09:00,30.2,22.3,19.45,North,360,4.0,4.0,72,0.00,,,0.00,Wunderground v.1.15,2013-12-06 02:09:00,
2013-12-05 21:15:00,30.2,22.6,19.45,North,360,8.0,8.0,73,0.00,,,0.00,Wunderground v.1.15,2013-12-06 02:15:00,
2013-12-05 21:24:00,30.1,22.2,19.45,North,360,6.0,14.0,72,0.00,,,0.00,Wunderground v.1.15,2013-12-06 02:24:00,
2013-12-05 21:35:00,30.0,22.4,19.45,North,360,9.0,9.0,73,0.00,,,0.00,Wunderground v.1.15,2013-12-06 02:35:00,
2013-12-05 21:44:00,29.9,22.3,19.45,North,360,6.0,6.0,73,0.00,,,0.00,Wunderground v.1.15,2013-12-06 02:44:00,
2013-12-05 21:50:00,29.9,22.3,19.45,North,360,6.0,9.0,73,0.00,,,0.00,Wunderground v.1.15,2013-12-06 02:50:00,
2013-12-05 21:59:00,29.7,21.8,19.45,North,360,7.0,13.0,72,0.00,,,0.00,Wunderground v.1.15,2013-12-06 02:59:00,
2013-12-05 22:10:00,29.6,21.3,19.45,North,360,8.0,10.0,71,0.00,,,0.00,Wunderground v.1.15,2013-12-06 03:10:00,
2013-12-05 22:19:00,29.5,21.3,19.45,North,360,7.0,9.0,71,0.00,,,0.00,Wunderground v.1.15,2013-12-06 03:19:00,
2013-12-05 22:30:00,29.4,21.2,19.45,North,360,7.0,7.0,71,0.00,,,0.00,Wunderground v.1.15,2013-12-06 03:30:00,
2013-12-05 22:39:00,29.3,21.4,19.45,North,360,3.0,5.0,72,0.00,,,0.00,Wunderground v.1.15,2013-12-06 03:39:00,
2013-12-05 22:45:00,29.3,21.4,19.45,North,360,5.0,5.0,72,0.00,,,0.00,Wunderground v.1.15,2013-12-06 03:45:00,
2013-12-05 22:55:00,29.4,21.8,19.45,North,360,6.0,6.0,73,0.00,,,0.00,Wunderground v.1.15,2013-12-06 03:55:00,
2013-12-05 23:04:00,29.5,21.9,19.45,North,360,4.0,5.0,73,0.00,,,0.00,Wunderground v.1.15,2013-12-06 04:04:00,
2013-12-05 23:10:00,29.5,21.9,19.45,North,360,6.0,6.0,73,0.00,,,0.00,Wunderground v.1.15,2013-12-06 04:10:00,
2013-12-05 23:19:00,29.4,21.5,19.45,North,360,8.0,14.0,72,0.00,,,0.00,Wunderground v.1.15,2013-12-06 04:19:00,
2013-12-05 23:25:00,29.4,21.5,19.45,North,360,5.0,6.0,72,0.00,,,0.00,Wunderground v.1.15,2013-12-06 04:25:00,
2013-12-05 23:34:00,29.2,21.3,19.45,North,360,6.0,6.0,72,0.00,,,0.00,Wunderground v.1.15,2013-12-06 04:34:00,
2013-12-05 23:40:00,29.2,21.3,19.45,North,360,6.0,10.0,72,0.00,,,0.00,Wunderground v.1.15,2013-12-06 04:40:00,
2013-12-05 23:49:00,29.1,21.5,19.45,North,360,4.0,9.0,73,0.00,,,0.00,Wunderground v.1.15,2013-12-06 04:49:00,
2013-12-05 23:55:00,29.0,21.4,19.45,North,360,5.0,5.0,73,0.00,,,0.00,Wunderground v.1.15,2013-12-06 04:55:00,